Arbuckle, California
Current Conditions -  °F | °C
As of 2:30 PM on Tuesday 21 Oct 2014 (Local Time) from KMYV Reporting Station
Haze Haze  
Wind Chill: 70°   Ceiling: 2200
Heat Index: 70°   Visibility: 2.5mi
Dew Point: 42°   Wind: 12mph
Humidity: 36%   Direction: 320°NW
Pressure: 30.03"   Gusts: NA
Location:  39.02°N, 122.06°W
Report Text: KMYV 212130Z AUTO 32010KT 2 1/2SM HZ BKN022 21/06 A3003 RMK AO2 T02110056
Loading
Personal Weather Stations






























Interactive Weather Map
Tropical Storm Tracking
New forecast layout! Learn more

10-Day Weather Forecast

Advertisements
Track Severe Weather on mobile